Algoa, Arkansas
Current Conditions -  °F | °C
As of 5:56 AM on Sunday 21 Dec 2014 (Local Time) from KM19 Reporting Station
Overcast Overcast  
Wind Chill: 39°   Ceiling: 4600
Heat Index: 39°   Visibility: 10mi
Dew Point: 34°   Wind: 3mph
Humidity: 83%   Direction: 70°ENE
Pressure: 30.23"   Gusts: NA
Location:  35.5678°N, 91.2073°W
Report Text: KM19 211156Z AUTO 07003KT 10SM OVC046 04/01 A3023 RMK AO2 55005 T00380011 10050 20027 SLP238
Loading
Personal Weather Stations






























Interactive Weather Map New forecast layout! Learn more

10-Day Weather Forecast

Advertisements
Track Severe Weather on mobile